createdAt,value
2019-02-20T00:01:22.914Z,11.50
2019-02-20T00:03:52.495Z,13.77
2019-02-20T00:06:21.626Z,10.93
2019-02-20T00:08:53.147Z,15.00
2019-02-20T00:11:22.310Z,17.63
2019-02-20T00:13:51.598Z,20.27
2019-02-20T00:16:21.370Z,26.60
2019-02-20T00:18:50.356Z,17.83
2019-02-20T00:21:19.356Z,14.13
2019-02-20T00:23:48.831Z,9.77
2019-02-20T00:26:20.685Z,13.93
2019-02-20T00:28:51.511Z,20.93
2019-02-20T00:31:20.407Z,12.53
2019-02-20T00:33:49.340Z,12.43
2019-02-20T00:36:18.458Z,13.57
2019-02-20T00:38:47.390Z,17.53
2019-02-20T00:41:16.258Z,20.80
2019-02-20T00:43:48.738Z,16.43
2019-02-20T00:46:36.693Z,17.97
2019-02-20T00:49:13.365Z,11.67
2019-02-20T00:52:04.834Z,18.87
2019-02-20T00:54:33.692Z,10.13
2019-02-20T00:57:02.752Z,12.90
2019-02-20T00:59:32.152Z,11.03
2019-02-20T01:02:06.370Z,14.17
2019-02-20T01:04:35.417Z,19.43
2019-02-20T01:07:07.697Z,19.40
2019-02-20T01:09:36.730Z,13.70
2019-02-20T01:12:06.943Z,16.37
2019-02-20T01:14:35.880Z,11.97
2019-02-20T01:17:05.015Z,20.00
2019-02-20T01:19:34.847Z,12.37
2019-02-20T01:22:03.825Z,23.13
2019-02-20T01:24:32.721Z,12.83
2019-02-20T01:27:01.623Z,18.23
2019-02-20T01:29:30.494Z,19.40
2019-02-20T01:31:59.566Z,17.40
2019-02-20T01:34:28.489Z,22.40
2019-02-20T01:37:02.941Z,9.80
2019-02-20T01:39:35.879Z,9.60
2019-02-20T01:42:11.389Z,8.10
2019-02-20T01:44:42.778Z,9.93
2019-02-20T01:47:11.818Z,12.80
2019-02-20T01:49:40.670Z,16.20
2019-02-20T01:52:09.619Z,12.97
2019-02-20T01:54:38.481Z,14.13
2019-02-20T01:57:08.307Z,13.13
2019-02-20T01:59:38.151Z,9.50
2019-02-20T02:02:08.220Z,11.70
2019-02-20T02:04:40.017Z,13.37
2019-02-20T02:07:09.803Z,11.30
2019-02-20T02:09:39.005Z,14.83
2019-02-20T02:12:08.466Z,17.03
2019-02-20T02:14:38.589Z,14.00
2019-02-20T02:17:08.000Z,15.77
2019-02-20T02:19:38.526Z,14.50
2019-02-20T02:22:08.313Z,17.23
2019-02-20T02:24:37.742Z,17.17
2019-02-20T02:27:06.759Z,17.40
2019-02-20T02:29:36.316Z,14.80
2019-02-20T02:32:05.758Z,10.90
2019-02-20T02:34:34.998Z,12.83
2019-02-20T02:37:04.485Z,18.27
2019-02-20T02:39:34.125Z,24.77
2019-02-20T02:42:03.159Z,15.80
2019-02-20T02:44:32.270Z,14.60
2019-02-20T02:47:01.243Z,21.93
2019-02-20T02:49:30.133Z,22.50
2019-02-20T02:51:59.075Z,19.20
2019-02-20T02:54:28.086Z,16.63
2019-02-20T02:56:56.997Z,13.53
2019-02-20T02:59:25.998Z,17.50
2019-02-20T03:01:55.119Z,21.60
2019-02-20T03:04:24.017Z,16.97
2019-02-20T03:06:52.966Z,15.13
2019-02-20T03:09:21.940Z,16.93
2019-02-20T03:11:50.863Z,14.60
2019-02-20T03:14:19.842Z,12.20
2019-02-20T03:16:48.769Z,16.07
2019-02-20T03:19:17.762Z,13.37
2019-02-20T03:21:46.611Z,17.00
2019-02-20T03:24:15.486Z,12.60
2019-02-20T03:26:45.362Z,18.80
2019-02-20T03:29:16.638Z,13.57
2019-02-20T03:31:47.642Z,23.30
2019-02-20T03:34:18.446Z,20.37
2019-02-20T03:36:51.282Z,18.33
2019-02-20T03:39:23.669Z,14.80
2019-02-20T03:41:52.887Z,15.57
2019-02-20T03:44:21.767Z,14.53
2019-02-20T03:46:50.705Z,11.10
2019-02-20T03:49:19.644Z,24.13
2019-02-20T03:51:48.578Z,15.67
2019-02-20T03:54:17.508Z,12.50
2019-02-20T03:56:46.530Z,20.40
2019-02-20T03:59:15.510Z,14.93
2019-02-20T04:01:44.491Z,25.43
2019-02-20T04:04:13.469Z,15.23
2019-02-20T04:06:42.369Z,18.60
2019-02-20T04:09:11.290Z,15.50
2019-02-20T04:11:40.172Z,10.80
2019-02-20T04:14:09.121Z,10.90
2019-02-20T04:16:38.000Z,18.97
2019-02-20T04:19:06.863Z,19.53
2019-02-20T04:21:35.846Z,13.90
2019-02-20T04:24:04.912Z,17.27
2019-02-20T04:26:33.818Z,18.63
2019-02-20T04:29:02.756Z,16.23
2019-02-20T04:31:31.750Z,18.70
2019-02-20T04:34:00.742Z,20.43
2019-02-20T04:36:29.650Z,13.57
2019-02-20T04:38:58.538Z,22.80
2019-02-20T04:41:27.408Z,16.60
2019-02-20T04:43:56.262Z,19.73
2019-02-20T04:46:25.159Z,17.63
2019-02-20T04:48:54.078Z,16.63
2019-02-20T04:51:23.147Z,12.67
2019-02-20T04:53:52.019Z,15.83
2019-02-20T04:56:20.926Z,14.03
2019-02-20T04:58:54.837Z,11.73
2019-02-20T05:01:23.810Z,20.53
2019-02-20T05:03:52.715Z,15.23
2019-02-20T05:06:21.647Z,14.13
2019-02-20T05:08:50.559Z,14.97
2019-02-20T05:11:19.547Z,13.93
2019-02-20T05:13:48.520Z,17.87
2019-02-20T05:16:17.423Z,23.93
2019-02-20T05:18:46.358Z,15.33
2019-02-20T05:21:15.477Z,13.17
2019-02-20T05:23:44.341Z,13.17
2019-02-20T05:26:13.318Z,15.80
2019-02-20T05:28:42.253Z,20.10
2019-02-20T05:31:11.210Z,15.33
2019-02-20T05:33:40.163Z,20.27
2019-02-20T05:36:09.034Z,16.77
2019-02-20T05:38:38.019Z,14.47
2019-02-20T05:41:07.040Z,13.97
2019-02-20T05:43:36.042Z,11.77
2019-02-20T05:46:05.083Z,16.97
2019-02-20T05:48:34.376Z,18.83
2019-02-20T05:51:03.277Z,9.83
2019-02-20T05:53:32.238Z,18.77
2019-02-20T05:56:01.137Z,9.50
2019-02-20T05:58:30.099Z,32.40
2019-02-20T06:00:59.187Z,14.00
2019-02-20T06:03:28.152Z,13.53
2019-02-20T06:05:57.092Z,25.33
2019-02-20T06:08:26.102Z,13.93
2019-02-20T06:10:55.083Z,22.00
2019-02-20T06:13:23.969Z,18.80
2019-02-20T06:15:52.953Z,15.73
2019-02-20T06:18:21.830Z,15.57
2019-02-20T06:20:51.885Z,19.47
2019-02-20T06:23:20.764Z,15.97
2019-02-20T06:25:49.639Z,17.23
2019-02-20T06:28:18.638Z,19.70
2019-02-20T06:30:47.592Z,17.40
2019-02-20T06:33:16.844Z,16.93
2019-02-20T06:35:46.316Z,15.90
2019-02-20T06:38:15.705Z,17.53
2019-02-20T06:40:44.574Z,12.47
2019-02-20T06:43:13.485Z,18.10
2019-02-20T06:45:45.736Z,12.33
2019-02-20T06:48:14.646Z,12.97
2019-02-20T06:50:43.584Z,21.10
2019-02-20T06:53:12.511Z,20.40
2019-02-20T06:55:41.417Z,10.47
2019-02-20T06:58:10.307Z,13.90
2019-02-20T07:00:39.241Z,24.47
2019-02-20T07:03:08.108Z,17.87
2019-02-20T07:05:41.881Z,27.00
2019-02-20T07:08:50.321Z,22.73
2019-02-20T07:11:57.905Z,11.83
2019-02-20T07:15:26.489Z,20.80
2019-02-20T07:18:25.839Z,18.17
2019-02-20T07:21:20.164Z,15.97
2019-02-20T07:23:59.026Z,19.07
2019-02-20T07:26:39.338Z,19.47
2019-02-20T07:29:39.557Z,13.80
2019-02-20T07:32:08.562Z,18.13
2019-02-20T07:34:37.547Z,32.63
2019-02-20T07:37:06.838Z,23.33
2019-02-20T07:39:35.774Z,21.03
2019-02-20T07:42:04.877Z,15.37
2019-02-20T07:44:33.856Z,23.37
2019-02-20T07:47:02.783Z,16.30
2019-02-20T07:49:31.982Z,33.30
2019-02-20T07:52:00.954Z,23.80
2019-02-20T07:54:29.848Z,21.23
2019-02-20T07:56:58.720Z,20.17
2019-02-20T07:59:27.685Z,20.87
2019-02-20T08:01:56.585Z,15.57
2019-02-20T08:04:25.771Z,18.03
2019-02-20T08:06:54.722Z,20.67
2019-02-20T08:09:23.710Z,29.83
2019-02-20T08:11:52.585Z,21.87
2019-02-20T08:14:21.571Z,23.50
2019-02-20T08:16:52.578Z,30.13
2019-02-20T08:19:21.946Z,28.23
2019-02-20T08:21:51.147Z,25.87
2019-02-20T08:24:20.082Z,27.30
2019-02-20T08:26:49.026Z,15.23
2019-02-20T08:29:17.889Z,24.17
2019-02-20T08:31:46.901Z,22.40
2019-02-20T08:34:15.786Z,22.17
2019-02-20T08:36:44.658Z,24.93
2019-02-20T08:39:13.518Z,25.07
2019-02-20T08:41:42.497Z,23.87
2019-02-20T08:44:11.412Z,24.20
2019-02-20T08:46:40.437Z,19.97
2019-02-20T08:49:09.314Z,27.63
2019-02-20T08:51:38.277Z,23.33
2019-02-20T08:54:07.174Z,22.47
2019-02-20T08:56:36.113Z,30.23
2019-02-20T08:59:05.120Z,26.70
2019-02-20T09:01:34.257Z,23.43
2019-02-20T09:04:03.362Z,23.73
2019-02-20T09:06:32.330Z,22.43
2019-02-20T09:09:01.231Z,24.87
2019-02-20T09:11:30.185Z,24.13
2019-02-20T09:13:59.069Z,30.00
2019-02-20T09:16:27.951Z,20.93
2019-02-20T09:18:56.893Z,31.63
2019-02-20T09:21:25.859Z,27.07
2019-02-20T09:23:54.879Z,29.00
2019-02-20T09:26:23.854Z,27.87
2019-02-20T09:28:52.802Z,24.57
2019-02-20T09:31:21.895Z,28.77
2019-02-20T09:33:50.827Z,32.60
2019-02-20T09:36:19.705Z,34.77
2019-02-20T09:38:48.562Z,30.00
2019-02-20T09:41:17.460Z,21.40
2019-02-20T09:43:47.721Z,28.23
2019-02-20T09:46:16.712Z,27.67
2019-02-20T09:48:45.577Z,30.77
2019-02-20T09:51:14.535Z,24.47
2019-02-20T09:53:43.490Z,34.53
2019-02-20T09:56:12.354Z,23.80
2019-02-20T09:58:41.276Z,23.27
2019-02-20T10:01:10.477Z,34.20
2019-02-20T10:03:39.402Z,38.33
2019-02-20T10:06:08.281Z,32.13
2019-02-20T10:08:37.166Z,25.17
2019-02-20T10:11:06.114Z,34.13
2019-02-20T10:13:35.084Z,21.47
2019-02-20T10:16:04.027Z,22.17
2019-02-20T10:18:32.871Z,33.30
2019-02-20T10:21:01.834Z,27.57
2019-02-20T10:23:30.707Z,30.20
2019-02-20T10:26:01.139Z,28.20
2019-02-20T10:28:30.205Z,34.67
2019-02-20T10:30:59.107Z,24.70
2019-02-20T10:33:27.993Z,21.43
2019-02-20T10:35:56.920Z,26.77
2019-02-20T10:38:25.841Z,22.33
2019-02-20T10:40:54.891Z,22.77
2019-02-20T10:43:23.852Z,28.07
2019-02-20T10:45:52.690Z,21.20
2019-02-20T10:48:21.578Z,35.37
2019-02-20T10:50:55.793Z,27.30
2019-02-20T10:53:25.573Z,21.33
2019-02-20T10:55:54.579Z,24.67
2019-02-20T10:58:23.462Z,21.43
2019-02-20T11:00:52.429Z,25.17
2019-02-20T11:03:21.298Z,29.27
2019-02-20T11:05:50.247Z,21.73
2019-02-20T11:08:19.197Z,21.07
2019-02-20T11:10:48.126Z,20.83
2019-02-20T11:13:17.103Z,18.70
2019-02-20T11:15:45.991Z,17.37
2019-02-20T11:18:14.947Z,19.80
2019-02-20T11:20:48.369Z,21.03
2019-02-20T11:23:14.442Z,18.87
2019-02-20T11:25:43.584Z,17.50
2019-02-20T11:28:12.435Z,22.37
2019-02-20T11:30:41.387Z,14.87
2019-02-20T11:33:10.322Z,19.83
2019-02-20T11:35:39.219Z,35.37
2019-02-20T11:38:08.066Z,23.70
2019-02-20T11:40:36.974Z,19.07
2019-02-20T11:43:06.295Z,16.70
2019-02-20T11:45:35.366Z,14.73
2019-02-20T11:48:04.362Z,15.00
2019-02-20T11:50:33.205Z,19.67
2019-02-20T11:53:02.147Z,18.93
2019-02-20T11:55:31.210Z,18.00
2019-02-20T11:58:00.994Z,19.70
2019-02-20T12:00:30.256Z,20.57
2019-02-20T12:02:59.287Z,23.00
2019-02-20T12:05:28.314Z,17.87
2019-02-20T12:07:57.207Z,12.97
2019-02-20T12:10:26.189Z,22.10
2019-02-20T12:12:55.238Z,13.30
2019-02-20T12:15:24.385Z,16.17
2019-02-20T12:17:53.251Z,17.67
2019-02-20T12:20:22.208Z,15.30
2019-02-20T12:22:51.153Z,12.03
2019-02-20T12:25:20.099Z,14.00
2019-02-20T12:27:49.049Z,13.90
2019-02-20T12:30:17.926Z,17.60
2019-02-20T12:32:46.866Z,15.30
2019-02-20T12:35:15.866Z,10.43
2019-02-20T12:37:44.817Z,10.47
2019-02-20T12:40:13.835Z,18.83
2019-02-20T12:42:42.826Z,12.53
2019-02-20T12:45:12.218Z,16.27
2019-02-20T12:47:41.162Z,11.73
2019-02-20T12:50:10.647Z,10.33
2019-02-20T12:52:39.640Z,15.17
2019-02-20T12:55:08.686Z,14.57
2019-02-20T12:57:37.646Z,13.67
2019-02-20T13:00:07.159Z,7.40
2019-02-20T13:02:36.203Z,18.90
2019-02-20T13:05:06.343Z,11.33
2019-02-20T13:07:36.146Z,13.27
2019-02-20T13:10:06.365Z,8.63
2019-02-20T13:12:37.054Z,9.43
2019-02-20T13:15:07.677Z,9.50
2019-02-20T13:17:36.664Z,11.20
2019-02-20T13:20:05.670Z,4.57
2019-02-20T13:22:34.542Z,5.93
2019-02-20T13:25:04.230Z,12.83
2019-02-20T13:27:33.315Z,6.97
2019-02-20T13:30:02.239Z,10.20
2019-02-20T13:32:31.136Z,7.10
2019-02-20T13:35:00.435Z,9.63
2019-02-20T13:37:29.466Z,8.77
2019-02-20T13:39:58.346Z,8.50
2019-02-20T13:42:27.278Z,7.33
2019-02-20T13:44:56.237Z,5.53
2019-02-20T13:47:26.067Z,16.87
2019-02-20T13:49:56.089Z,15.00
2019-02-20T13:52:27.642Z,13.63
2019-02-20T13:54:58.181Z,7.47
2019-02-20T13:57:27.236Z,13.43
2019-02-20T13:59:56.221Z,9.60
2019-02-20T14:02:25.276Z,11.97
2019-02-20T14:04:55.875Z,8.07
2019-02-20T14:07:24.919Z,16.37
2019-02-20T14:09:53.915Z,10.53
2019-02-20T14:12:22.836Z,9.13
2019-02-20T14:14:51.853Z,5.60
2019-02-20T14:17:26.719Z,7.63
2019-02-20T14:19:51.514Z,10.53
2019-02-20T14:22:20.822Z,8.93
2019-02-20T14:24:49.724Z,7.37
2019-02-20T14:27:18.939Z,9.20
2019-02-20T14:29:47.866Z,4.73
2019-02-20T14:32:16.719Z,5.90
2019-02-20T14:34:45.709Z,7.57
2019-02-20T14:37:14.608Z,6.47
2019-02-20T14:39:43.853Z,3.63
2019-02-20T14:42:13.654Z,5.03
2019-02-20T14:44:43.247Z,8.03
2019-02-20T14:47:12.911Z,7.67
2019-02-20T14:49:43.900Z,9.73
2019-02-20T14:52:13.119Z,3.90
2019-02-20T14:54:43.914Z,4.23
2019-02-20T14:57:19.358Z,4.57
2019-02-20T14:59:44.211Z,8.87
2019-02-20T15:02:13.238Z,11.80
2019-02-20T15:04:42.559Z,6.97
2019-02-20T15:07:11.777Z,6.03
2019-02-20T15:09:40.969Z,5.87
2019-02-20T15:12:10.108Z,8.57
2019-02-20T15:14:39.038Z,13.90
2019-02-20T15:17:08.512Z,3.90
2019-02-20T15:19:37.614Z,6.77
2019-02-20T15:22:06.646Z,9.00
2019-02-20T15:24:35.793Z,8.53
2019-02-20T15:27:06.266Z,6.70
2019-02-20T15:29:35.723Z,25.80
2019-02-20T15:32:04.845Z,5.23
2019-02-20T15:34:33.847Z,7.90
2019-02-20T15:37:02.927Z,16.33
2019-02-20T15:39:32.022Z,8.80
2019-02-20T15:42:00.867Z,27.77
2019-02-20T15:44:30.125Z,9.60
2019-02-20T15:46:59.139Z,10.97
2019-02-20T15:49:28.761Z,9.53
2019-02-20T15:51:57.684Z,8.53
2019-02-20T15:54:26.579Z,8.87
2019-02-20T15:56:55.572Z,8.07
2019-02-20T15:59:24.558Z,14.50
2019-02-20T16:01:54.082Z,5.00
2019-02-20T16:04:23.160Z,7.97
2019-02-20T16:06:52.150Z,8.57
2019-02-20T16:09:21.143Z,4.83
2019-02-20T16:11:50.226Z,10.67
2019-02-20T16:14:19.826Z,8.90
2019-02-20T16:16:48.962Z,11.13
2019-02-20T16:19:17.878Z,8.77
2019-02-20T16:21:46.836Z,4.87
2019-02-20T16:24:15.678Z,8.00
2019-02-20T16:26:44.687Z,8.00
2019-02-20T16:29:13.704Z,10.87
2019-02-20T16:31:43.293Z,8.17
2019-02-20T16:34:12.210Z,8.23
2019-02-20T16:36:41.105Z,11.00
2019-02-20T16:39:10.098Z,14.47
2019-02-20T16:41:39.216Z,7.80
2019-02-20T16:44:10.035Z,6.60
2019-02-20T16:46:38.940Z,5.20
2019-02-20T16:49:07.998Z,9.97
2019-02-20T16:51:36.905Z,6.13
2019-02-20T16:54:06.105Z,6.10
2019-02-20T16:56:35.129Z,4.97
2019-02-20T16:59:05.351Z,5.93
2019-02-20T17:01:34.657Z,10.20
2019-02-20T17:04:03.938Z,10.23
2019-02-20T17:06:32.971Z,7.27
2019-02-20T17:09:01.999Z,7.77
2019-02-20T17:11:31.058Z,5.97
2019-02-20T17:13:59.942Z,6.73
2019-02-20T17:16:28.902Z,14.90
2019-02-20T17:18:59.791Z,6.93
2019-02-20T17:21:28.837Z,7.20
2019-02-20T17:23:59.223Z,16.47
2019-02-20T17:26:28.230Z,8.40
2019-02-20T17:28:57.081Z,5.00
2019-02-20T17:31:26.177Z,20.87
2019-02-20T17:33:55.400Z,11.00
2019-02-20T17:36:24.334Z,7.93
2019-02-20T17:38:53.250Z,11.37
2019-02-20T17:41:23.401Z,6.67
2019-02-20T17:43:52.606Z,10.20
2019-02-20T17:46:21.590Z,9.63
2019-02-20T17:48:50.442Z,6.07
2019-02-20T17:51:19.315Z,8.97
2019-02-20T17:53:49.307Z,14.33
2019-02-20T17:56:18.717Z,9.70
2019-02-20T17:58:47.615Z,8.23
2019-02-20T18:01:17.958Z,6.80
2019-02-20T18:03:47.022Z,11.47
2019-02-20T18:06:16.124Z,10.00
2019-02-20T18:08:45.594Z,9.60
2019-02-20T18:11:14.798Z,8.07
2019-02-20T18:13:43.730Z,13.00
2019-02-20T18:16:12.649Z,6.97
2019-02-20T18:18:42.930Z,5.23
2019-02-20T18:21:11.957Z,10.93
2019-02-20T18:23:40.799Z,9.13
2019-02-20T18:26:10.376Z,9.53
2019-02-20T18:28:39.237Z,9.87
2019-02-20T18:31:08.223Z,10.80
2019-02-20T18:33:37.165Z,8.30
2019-02-20T18:36:06.151Z,9.63
2019-02-20T18:38:35.045Z,8.80
2019-02-20T18:41:09.015Z,13.97
2019-02-20T18:43:38.211Z,7.73
2019-02-20T18:46:07.264Z,9.33
2019-02-20T18:48:37.498Z,6.83
2019-02-20T18:51:06.719Z,8.57
2019-02-20T18:53:35.849Z,8.50
2019-02-20T18:56:04.976Z,11.87
2019-02-20T18:58:34.437Z,9.20
2019-02-20T19:01:03.445Z,12.40
2019-02-20T19:03:32.487Z,10.93
2019-02-20T19:06:01.395Z,16.03
2019-02-20T19:08:41.605Z,7.67
2019-02-20T19:11:21.051Z,12.63
2019-02-20T19:14:09.330Z,10.50
2019-02-20T19:17:25.022Z,12.93
2019-02-20T19:20:28.887Z,8.73
2019-02-20T19:23:16.974Z,14.70
2019-02-20T19:26:29.794Z,12.83
2019-02-20T19:29:35.387Z,25.57
2019-02-20T19:32:41.571Z,8.53
2019-02-20T19:35:22.458Z,13.77
2019-02-20T19:38:09.396Z,11.73
2019-02-20T19:41:25.894Z,12.37
2019-02-20T19:44:11.313Z,9.10
2019-02-20T19:47:30.581Z,15.87
2019-02-20T19:50:29.270Z,37.17
2019-02-20T19:53:05.600Z,22.40
2019-02-20T19:56:07.622Z,10.30
2019-02-20T19:59:19.971Z,9.10
2019-02-20T20:02:34.757Z,10.60
2019-02-20T20:05:48.572Z,11.17
2019-02-20T20:08:55.310Z,11.67
2019-02-20T20:11:56.565Z,15.10
2019-02-20T20:15:03.668Z,13.10
2019-02-20T20:17:57.649Z,11.90
2019-02-20T20:20:52.476Z,12.00
2019-02-20T20:23:56.665Z,10.50
2019-02-20T20:27:07.487Z,14.63
2019-02-20T20:30:23.063Z,10.47
2019-02-20T20:33:21.073Z,11.27
2019-02-20T20:36:32.738Z,10.83
2019-02-20T20:39:13.236Z,29.63
2019-02-20T20:42:33.945Z,10.97
2019-02-20T20:45:18.939Z,11.27
2019-02-20T20:48:21.236Z,23.23
2019-02-20T20:51:37.105Z,17.60
2019-02-20T20:54:22.754Z,14.73
2019-02-20T20:57:18.870Z,11.07
2019-02-20T21:00:16.072Z,16.13
2019-02-20T21:03:11.776Z,12.90
2019-02-20T21:06:15.647Z,12.77
2019-02-20T21:08:59.886Z,14.97
2019-02-20T21:12:19.212Z,11.60
2019-02-20T21:15:19.959Z,13.70
2019-02-20T21:18:20.346Z,21.50
2019-02-20T21:21:16.299Z,12.30
2019-02-20T21:24:36.471Z,10.33
2019-02-20T21:28:01.348Z,10.77
2019-02-20T21:31:13.282Z,18.37
2019-02-20T21:34:06.020Z,11.43
2019-02-20T21:36:44.643Z,14.33
2019-02-20T21:39:38.270Z,14.17
2019-02-20T21:42:17.813Z,14.73
2019-02-20T21:45:21.651Z,22.70
2019-02-20T21:48:02.368Z,19.67
2019-02-20T21:51:08.235Z,13.87
2019-02-20T21:53:54.502Z,17.50
2019-02-20T21:56:41.505Z,17.80
2019-02-20T22:00:00.863Z,12.10
2019-02-20T22:02:45.894Z,14.03
2019-02-20T22:05:38.847Z,15.03
2019-02-20T22:08:31.884Z,14.77
2019-02-20T22:11:24.391Z,16.97
2019-02-20T22:14:15.874Z,18.63
2019-02-20T22:17:13.118Z,42.17
2019-02-20T22:20:12.558Z,24.73
2019-02-20T22:23:07.924Z,15.73
2019-02-20T22:26:27.374Z,15.90
2019-02-20T22:29:50.604Z,13.67
2019-02-20T22:32:55.993Z,12.47
2019-02-20T22:35:55.841Z,17.93
2019-02-20T22:38:48.716Z,10.23
2019-02-20T22:41:48.866Z,13.17
2019-02-20T22:45:03.806Z,14.03
2019-02-20T22:48:28.827Z,12.00
2019-02-20T22:51:37.569Z,13.70
2019-02-20T22:54:28.642Z,18.17
2019-02-20T22:57:27.721Z,9.13
2019-02-20T23:00:49.515Z,12.03
2019-02-20T23:03:51.531Z,10.33
2019-02-20T23:07:13.737Z,11.53
2019-02-20T23:10:06.596Z,11.03
2019-02-20T23:13:05.551Z,16.47
2019-02-20T23:15:35.993Z,13.70
2019-02-20T23:18:05.793Z,11.40
2019-02-20T23:20:34.818Z,10.10
2019-02-20T23:23:04.178Z,10.13
2019-02-20T23:25:33.453Z,14.30
2019-02-20T23:28:05.946Z,16.63
2019-02-20T23:30:34.838Z,12.87
2019-02-20T23:33:04.160Z,14.87
2019-02-20T23:35:35.110Z,17.40
2019-02-20T23:38:03.965Z,16.00
2019-02-20T23:40:32.880Z,13.67
2019-02-20T23:43:02.346Z,13.03
2019-02-20T23:45:32.676Z,16.87
2019-02-20T23:48:01.570Z,13.67
2019-02-20T23:50:30.546Z,13.07
2019-02-20T23:52:59.462Z,13.77
2019-02-20T23:55:28.389Z,13.23
2019-02-20T23:57:57.315Z,14.40
